sensor_id;sensor_type;location;lat;lon;timestamp;P1;durP1;ratioP1;P2;durP2;ratioP2
23123;SDS011;11731;48.592;8.858;2024-03-29T00:02:21;2.73;;;1.90;;
23123;SDS011;11731;48.592;8.858;2024-03-29T00:04:47;5.97;;;2.10;;
23123;SDS011;11731;48.592;8.858;2024-03-29T00:07:13;4.13;;;2.20;;
23123;SDS011;11731;48.592;8.858;2024-03-29T00:09:40;3.07;;;2.33;;
23123;SDS011;11731;48.592;8.858;2024-03-29T00:12:07;3.87;;;2.00;;
23123;SDS011;11731;48.592;8.858;2024-03-29T00:14:33;3.07;;;2.40;;
23123;SDS011;11731;48.592;8.858;2024-03-29T00:16:59;3.63;;;2.10;;
23123;SDS011;11731;48.592;8.858;2024-03-29T00:19:24;3.20;;;2.00;;
23123;SDS011;11731;48.592;8.858;2024-03-29T00:21:50;4.73;;;2.20;;
23123;SDS011;11731;48.592;8.858;2024-03-29T00:24:16;3.87;;;3.10;;
23123;SDS011;11731;48.592;8.858;2024-03-29T00:26:44;3.47;;;2.60;;
23123;SDS011;11731;48.592;8.858;2024-03-29T00:29:09;3.80;;;2.50;;
23123;SDS011;11731;48.592;8.858;2024-03-29T00:31:35;5.23;;;2.40;;
23123;SDS011;11731;48.592;8.858;2024-03-29T00:34:01;5.47;;;2.23;;
23123;SDS011;11731;48.592;8.858;2024-03-29T00:36:27;2.00;;;1.80;;
23123;SDS011;11731;48.592;8.858;2024-03-29T00:38:53;2.93;;;1.87;;
23123;SDS011;11731;48.592;8.858;2024-03-29T00:41:19;3.83;;;2.17;;
23123;SDS011;11731;48.592;8.858;2024-03-29T00:43:47;2.97;;;2.03;;
23123;SDS011;11731;48.592;8.858;2024-03-29T00:46:13;2.27;;;1.80;;
23123;SDS011;11731;48.592;8.858;2024-03-29T00:48:39;3.73;;;2.10;;
23123;SDS011;11731;48.592;8.858;2024-03-29T00:51:05;4.93;;;2.70;;
23123;SDS011;11731;48.592;8.858;2024-03-29T00:53:31;5.37;;;2.97;;
23123;SDS011;11731;48.592;8.858;2024-03-29T00:55:57;3.50;;;2.10;;
23123;SDS011;11731;48.592;8.858;2024-03-29T00:58:23;2.10;;;1.30;;
23123;SDS011;11731;48.592;8.858;2024-03-29T01:00:50;3.30;;;1.80;;
23123;SDS011;11731;48.592;8.858;2024-03-29T01:03:16;2.10;;;1.57;;
23123;SDS011;11731;48.592;8.858;2024-03-29T01:05:42;2.10;;;1.60;;
23123;SDS011;11731;48.592;8.858;2024-03-29T01:08:08;3.23;;;1.30;;
23123;SDS011;11731;48.592;8.858;2024-03-29T01:10:34;3.00;;;2.00;;
23123;SDS011;11731;48.592;8.858;2024-03-29T01:13:00;3.87;;;2.00;;
23123;SDS011;11731;48.592;8.858;2024-03-29T01:15:26;3.37;;;2.07;;
23123;SDS011;11731;48.592;8.858;2024-03-29T01:17:53;3.73;;;2.00;;
23123;SDS011;11731;48.592;8.858;2024-03-29T01:20:19;2.70;;;2.10;;
23123;SDS011;11731;48.592;8.858;2024-03-29T01:22:45;3.40;;;2.07;;
23123;SDS011;11731;48.592;8.858;2024-03-29T01:25:11;4.10;;;1.50;;
23123;SDS011;11731;48.592;8.858;2024-03-29T01:27:37;2.50;;;1.43;;
23123;SDS011;11731;48.592;8.858;2024-03-29T01:30:03;2.00;;;1.80;;
23123;SDS011;11731;48.592;8.858;2024-03-29T01:32:30;1.90;;;1.57;;
23123;SDS011;11731;48.592;8.858;2024-03-29T01:34:57;1.83;;;1.47;;
23123;SDS011;11731;48.592;8.858;2024-03-29T01:37:23;2.50;;;1.50;;
23123;SDS011;11731;48.592;8.858;2024-03-29T01:39:49;2.87;;;1.60;;
23123;SDS011;11731;48.592;8.858;2024-03-29T01:42:16;2.30;;;1.70;;
23123;SDS011;11731;48.592;8.858;2024-03-29T01:44:42;2.87;;;1.50;;
23123;SDS011;11731;48.592;8.858;2024-03-29T01:47:09;2.03;;;1.50;;
23123;SDS011;11731;48.592;8.858;2024-03-29T01:49:36;2.80;;;1.30;;
23123;SDS011;11731;48.592;8.858;2024-03-29T01:52:04;1.77;;;1.30;;
23123;SDS011;11731;48.592;8.858;2024-03-29T01:54:32;5.43;;;1.97;;
23123;SDS011;11731;48.592;8.858;2024-03-29T01:57:00;6.17;;;1.87;;
23123;SDS011;11731;48.592;8.858;2024-03-29T01:59:27;3.67;;;1.70;;
23123;SDS011;11731;48.592;8.858;2024-03-29T02:01:55;2.17;;;1.53;;
23123;SDS011;11731;48.592;8.858;2024-03-29T02:04:22;4.50;;;2.00;;
23123;SDS011;11731;48.592;8.858;2024-03-29T02:06:49;1.80;;;1.30;;
23123;SDS011;11731;48.592;8.858;2024-03-29T02:09:18;1.67;;;1.30;;
23123;SDS011;11731;48.592;8.858;2024-03-29T02:11:45;4.50;;;1.50;;
23123;SDS011;11731;48.592;8.858;2024-03-29T02:14:12;3.23;;;1.20;;
23123;SDS011;11731;48.592;8.858;2024-03-29T02:16:39;1.73;;;1.17;;
23123;SDS011;11731;48.592;8.858;2024-03-29T02:19:07;2.83;;;1.40;;
23123;SDS011;11731;48.592;8.858;2024-03-29T02:21:35;3.10;;;1.20;;
23123;SDS011;11731;48.592;8.858;2024-03-29T02:24:07;3.20;;;1.17;;
23123;SDS011;11731;48.592;8.858;2024-03-29T02:26:34;3.20;;;1.47;;
23123;SDS011;11731;48.592;8.858;2024-03-29T02:29:06;1.93;;;1.27;;
23123;SDS011;11731;48.592;8.858;2024-03-29T02:31:33;5.27;;;1.60;;
23123;SDS011;11731;48.592;8.858;2024-03-29T02:34:00;3.93;;;1.60;;
23123;SDS011;11731;48.592;8.858;2024-03-29T02:36:27;2.83;;;1.50;;
23123;SDS011;11731;48.592;8.858;2024-03-29T02:38:54;2.67;;;1.57;;
23123;SDS011;11731;48.592;8.858;2024-03-29T02:41:22;3.13;;;1.40;;
23123;SDS011;11731;48.592;8.858;2024-03-29T02:43:51;2.20;;;1.40;;
23123;SDS011;11731;48.592;8.858;2024-03-29T02:46:18;1.47;;;1.07;;
23123;SDS011;11731;48.592;8.858;2024-03-29T02:48:44;5.70;;;1.07;;
23123;SDS011;11731;48.592;8.858;2024-03-29T02:51:10;3.23;;;1.30;;
23123;SDS011;11731;48.592;8.858;2024-03-29T02:53:37;1.50;;;0.97;;
23123;SDS011;11731;48.592;8.858;2024-03-29T02:56:03;0.97;;;0.93;;
23123;SDS011;11731;48.592;8.858;2024-03-29T02:58:33;0.83;;;0.83;;
23123;SDS011;11731;48.592;8.858;2024-03-29T03:01:04;5.97;;;2.40;;
23123;SDS011;11731;48.592;8.858;2024-03-29T03:03:31;3.53;;;1.27;;
23123;SDS011;11731;48.592;8.858;2024-03-29T03:05:58;2.53;;;1.80;;
23123;SDS011;11731;48.592;8.858;2024-03-29T03:08:24;3.27;;;1.80;;
23123;SDS011;11731;48.592;8.858;2024-03-29T03:11:09;3.03;;;1.97;;
23123;SDS011;11731;48.592;8.858;2024-03-29T03:13:37;4.77;;;2.47;;
23123;SDS011;11731;48.592;8.858;2024-03-29T03:16:03;2.00;;;1.30;;
23123;SDS011;11731;48.592;8.858;2024-03-29T03:18:30;1.67;;;1.30;;
23123;SDS011;11731;48.592;8.858;2024-03-29T03:20:56;2.53;;;1.20;;
23123;SDS011;11731;48.592;8.858;2024-03-29T03:23:23;1.73;;;1.30;;
23123;SDS011;11731;48.592;8.858;2024-03-29T03:25:53;3.00;;;1.70;;
23123;SDS011;11731;48.592;8.858;2024-03-29T03:28:20;4.03;;;2.43;;
23123;SDS011;11731;48.592;8.858;2024-03-29T03:30:48;2.93;;;1.90;;
23123;SDS011;11731;48.592;8.858;2024-03-29T03:33:15;4.97;;;2.03;;
23123;SDS011;11731;48.592;8.858;2024-03-29T03:35:41;5.40;;;2.80;;
23123;SDS011;11731;48.592;8.858;2024-03-29T03:38:08;3.83;;;1.70;;
23123;SDS011;11731;48.592;8.858;2024-03-29T03:40:34;1.63;;;1.50;;
23123;SDS011;11731;48.592;8.858;2024-03-29T03:43:02;3.73;;;1.90;;
23123;SDS011;11731;48.592;8.858;2024-03-29T03:45:28;3.60;;;1.80;;
23123;SDS011;11731;48.592;8.858;2024-03-29T03:47:56;3.03;;;1.83;;
23123;SDS011;11731;48.592;8.858;2024-03-29T03:50:22;2.70;;;1.60;;
23123;SDS011;11731;48.592;8.858;2024-03-29T03:52:49;3.27;;;1.70;;
23123;SDS011;11731;48.592;8.858;2024-03-29T03:55:15;2.23;;;1.40;;
23123;SDS011;11731;48.592;8.858;2024-03-29T03:57:42;3.13;;;1.73;;
23123;SDS011;11731;48.592;8.858;2024-03-29T04:00:08;4.60;;;2.00;;
23123;SDS011;11731;48.592;8.858;2024-03-29T04:02:36;3.03;;;1.67;;
23123;SDS011;11731;48.592;8.858;2024-03-29T04:05:03;2.13;;;1.33;;
23123;SDS011;11731;48.592;8.858;2024-03-29T04:07:30;2.37;;;1.50;;
23123;SDS011;11731;48.592;8.858;2024-03-29T04:09:56;3.10;;;1.43;;
23123;SDS011;11731;48.592;8.858;2024-03-29T04:12:23;3.83;;;1.90;;
23123;SDS011;11731;48.592;8.858;2024-03-29T04:14:49;1.80;;;1.20;;
23123;SDS011;11731;48.592;8.858;2024-03-29T04:17:16;3.00;;;1.47;;
23123;SDS011;11731;48.592;8.858;2024-03-29T04:19:42;3.30;;;1.43;;
23123;SDS011;11731;48.592;8.858;2024-03-29T04:22:10;1.93;;;1.03;;
23123;SDS011;11731;48.592;8.858;2024-03-29T04:24:36;2.03;;;1.50;;
23123;SDS011;11731;48.592;8.858;2024-03-29T04:27:03;1.87;;;1.53;;
23123;SDS011;11731;48.592;8.858;2024-03-29T04:29:29;4.30;;;1.40;;
23123;SDS011;11731;48.592;8.858;2024-03-29T04:31:56;2.17;;;1.20;;
23123;SDS011;11731;48.592;8.858;2024-03-29T04:34:22;2.53;;;1.80;;
23123;SDS011;11731;48.592;8.858;2024-03-29T04:36:49;2.20;;;1.73;;
23123;SDS011;11731;48.592;8.858;2024-03-29T04:39:17;2.77;;;1.87;;
23123;SDS011;11731;48.592;8.858;2024-03-29T04:41:44;3.20;;;1.50;;
23123;SDS011;11731;48.592;8.858;2024-03-29T04:44:11;2.00;;;1.40;;
23123;SDS011;11731;48.592;8.858;2024-03-29T04:46:39;3.40;;;1.60;;
23123;SDS011;11731;48.592;8.858;2024-03-29T04:49:06;2.10;;;1.50;;
23123;SDS011;11731;48.592;8.858;2024-03-29T04:51:33;2.77;;;1.70;;
23123;SDS011;11731;48.592;8.858;2024-03-29T04:54:00;1.50;;;1.30;;
23123;SDS011;11731;48.592;8.858;2024-03-29T04:56:28;2.70;;;1.50;;
23123;SDS011;11731;48.592;8.858;2024-03-29T04:58:55;2.53;;;1.63;;
23123;SDS011;11731;48.592;8.858;2024-03-29T05:01:22;2.63;;;1.40;;
23123;SDS011;11731;48.592;8.858;2024-03-29T05:03:49;1.87;;;1.30;;
23123;SDS011;11731;48.592;8.858;2024-03-29T05:06:16;2.57;;;1.50;;
23123;SDS011;11731;48.592;8.858;2024-03-29T05:08:43;4.47;;;1.70;;
23123;SDS011;11731;48.592;8.858;2024-03-29T05:11:10;3.50;;;1.60;;
23123;SDS011;11731;48.592;8.858;2024-03-29T05:13:40;2.23;;;1.50;;
23123;SDS011;11731;48.592;8.858;2024-03-29T05:16:07;2.33;;;1.33;;
23123;SDS011;11731;48.592;8.858;2024-03-29T05:18:35;2.10;;;1.30;;
23123;SDS011;11731;48.592;8.858;2024-03-29T05:21:02;3.70;;;1.40;;
23123;SDS011;11731;48.592;8.858;2024-03-29T05:23:29;3.47;;;1.90;;
23123;SDS011;11731;48.592;8.858;2024-03-29T05:25:56;2.33;;;1.40;;
23123;SDS011;11731;48.592;8.858;2024-03-29T05:28:23;2.60;;;1.80;;
23123;SDS011;11731;48.592;8.858;2024-03-29T05:30:51;1.57;;;1.13;;
23123;SDS011;11731;48.592;8.858;2024-03-29T05:33:18;1.83;;;1.37;;
23123;SDS011;11731;48.592;8.858;2024-03-29T05:35:45;2.53;;;1.57;;
23123;SDS011;11731;48.592;8.858;2024-03-29T05:38:12;2.57;;;1.50;;
23123;SDS011;11731;48.592;8.858;2024-03-29T05:40:39;2.97;;;1.40;;
23123;SDS011;11731;48.592;8.858;2024-03-29T05:43:05;2.57;;;1.60;;
23123;SDS011;11731;48.592;8.858;2024-03-29T05:45:32;2.63;;;1.73;;
23123;SDS011;11731;48.592;8.858;2024-03-29T05:48:01;2.93;;;1.70;;
23123;SDS011;11731;48.592;8.858;2024-03-29T05:50:28;2.80;;;1.67;;
23123;SDS011;11731;48.592;8.858;2024-03-29T05:52:55;2.37;;;1.73;;
23123;SDS011;11731;48.592;8.858;2024-03-29T05:55:24;2.07;;;1.57;;
23123;SDS011;11731;48.592;8.858;2024-03-29T05:57:52;1.80;;;1.50;;
23123;SDS011;11731;48.592;8.858;2024-03-29T06:00:19;2.17;;;1.90;;
23123;SDS011;11731;48.592;8.858;2024-03-29T06:02:46;7.33;;;1.77;;
23123;SDS011;11731;48.592;8.858;2024-03-29T06:05:15;2.63;;;1.90;;
23123;SDS011;11731;48.592;8.858;2024-03-29T06:07:42;3.23;;;2.40;;
23123;SDS011;11731;48.592;8.858;2024-03-29T06:10:09;3.70;;;1.70;;
23123;SDS011;11731;48.592;8.858;2024-03-29T06:12:36;1.60;;;1.40;;
23123;SDS011;11731;48.592;8.858;2024-03-29T06:15:04;2.40;;;1.80;;
23123;SDS011;11731;48.592;8.858;2024-03-29T06:17:49;2.57;;;1.50;;
23123;SDS011;11731;48.592;8.858;2024-03-29T06:20:17;2.20;;;1.80;;
23123;SDS011;11731;48.592;8.858;2024-03-29T06:22:44;3.47;;;1.83;;
23123;SDS011;11731;48.592;8.858;2024-03-29T06:25:11;2.40;;;1.50;;
23123;SDS011;11731;48.592;8.858;2024-03-29T06:27:38;2.33;;;1.50;;
23123;SDS011;11731;48.592;8.858;2024-03-29T06:30:05;2.37;;;1.60;;
23123;SDS011;11731;48.592;8.858;2024-03-29T06:32:33;2.03;;;1.47;;
23123;SDS011;11731;48.592;8.858;2024-03-29T06:35:00;2.43;;;1.83;;
23123;SDS011;11731;48.592;8.858;2024-03-29T06:37:29;2.37;;;1.40;;
23123;SDS011;11731;48.592;8.858;2024-03-29T06:39:55;2.17;;;1.90;;
23123;SDS011;11731;48.592;8.858;2024-03-29T06:42:22;3.13;;;1.50;;
23123;SDS011;11731;48.592;8.858;2024-03-29T06:44:49;3.00;;;1.60;;
23123;SDS011;11731;48.592;8.858;2024-03-29T06:47:17;2.97;;;2.20;;
23123;SDS011;11731;48.592;8.858;2024-03-29T06:49:44;1.87;;;1.43;;
23123;SDS011;11731;48.592;8.858;2024-03-29T06:52:11;2.77;;;1.67;;
23123;SDS011;11731;48.592;8.858;2024-03-29T06:54:39;3.10;;;1.50;;
23123;SDS011;11731;48.592;8.858;2024-03-29T06:57:07;2.30;;;1.50;;
23123;SDS011;11731;48.592;8.858;2024-03-29T06:59:35;2.23;;;1.50;;
23123;SDS011;11731;48.592;8.858;2024-03-29T07:02:02;1.40;;;1.30;;
23123;SDS011;11731;48.592;8.858;2024-03-29T07:04:29;1.83;;;1.30;;
23123;SDS011;11731;48.592;8.858;2024-03-29T07:06:56;3.77;;;2.07;;
23123;SDS011;11731;48.592;8.858;2024-03-29T07:09:23;2.60;;;1.60;;
23123;SDS011;11731;48.592;8.858;2024-03-29T07:11:51;1.60;;;1.30;;
23123;SDS011;11731;48.592;8.858;2024-03-29T07:14:19;3.23;;;1.70;;
23123;SDS011;11731;48.592;8.858;2024-03-29T07:16:48;1.80;;;1.47;;
23123;SDS011;11731;48.592;8.858;2024-03-29T07:19:15;2.40;;;1.83;;
23123;SDS011;11731;48.592;8.858;2024-03-29T07:21:43;4.20;;;1.73;;
23123;SDS011;11731;48.592;8.858;2024-03-29T07:24:11;5.40;;;1.93;;
23123;SDS011;11731;48.592;8.858;2024-03-29T07:26:38;3.30;;;2.00;;
23123;SDS011;11731;48.592;8.858;2024-03-29T07:29:06;2.80;;;2.10;;
23123;SDS011;11731;48.592;8.858;2024-03-29T07:31:33;2.30;;;1.83;;
23123;SDS011;11731;48.592;8.858;2024-03-29T07:34:00;2.73;;;2.27;;
23123;SDS011;11731;48.592;8.858;2024-03-29T07:36:27;2.67;;;1.87;;
23123;SDS011;11731;48.592;8.858;2024-03-29T07:38:59;3.27;;;2.00;;
23123;SDS011;11731;48.592;8.858;2024-03-29T07:41:26;1.63;;;1.50;;
23123;SDS011;11731;48.592;8.858;2024-03-29T07:43:54;3.80;;;1.63;;
23123;SDS011;11731;48.592;8.858;2024-03-29T07:46:27;3.33;;;1.80;;
23123;SDS011;11731;48.592;8.858;2024-03-29T07:48:54;4.13;;;1.50;;
23123;SDS011;11731;48.592;8.858;2024-03-29T07:51:21;3.00;;;1.47;;
23123;SDS011;11731;48.592;8.858;2024-03-29T07:53:48;1.80;;;1.70;;
23123;SDS011;11731;48.592;8.858;2024-03-29T07:56:15;2.37;;;1.67;;
23123;SDS011;11731;48.592;8.858;2024-03-29T07:58:42;1.50;;;1.40;;
23123;SDS011;11731;48.592;8.858;2024-03-29T08:01:09;2.03;;;1.60;;
23123;SDS011;11731;48.592;8.858;2024-03-29T08:03:37;2.63;;;2.17;;
23123;SDS011;11731;48.592;8.858;2024-03-29T08:06:04;2.90;;;2.20;;
23123;SDS011;11731;48.592;8.858;2024-03-29T08:08:32;3.63;;;1.80;;
23123;SDS011;11731;48.592;8.858;2024-03-29T08:10:59;2.93;;;1.93;;
23123;SDS011;11731;48.592;8.858;2024-03-29T08:13:26;3.13;;;2.10;;
23123;SDS011;11731;48.592;8.858;2024-03-29T08:15:57;2.40;;;1.90;;
23123;SDS011;11731;48.592;8.858;2024-03-29T08:18:24;3.77;;;2.27;;
23123;SDS011;11731;48.592;8.858;2024-03-29T08:20:53;3.10;;;2.07;;
23123;SDS011;11731;48.592;8.858;2024-03-29T08:23:21;3.30;;;2.00;;
23123;SDS011;11731;48.592;8.858;2024-03-29T08:25:48;3.37;;;2.10;;
23123;SDS011;11731;48.592;8.858;2024-03-29T08:28:16;4.97;;;2.10;;
23123;SDS011;11731;48.592;8.858;2024-03-29T08:30:43;3.07;;;2.10;;
23123;SDS011;11731;48.592;8.858;2024-03-29T08:33:10;2.07;;;1.80;;
23123;SDS011;11731;48.592;8.858;2024-03-29T08:35:38;2.23;;;1.50;;
23123;SDS011;11731;48.592;8.858;2024-03-29T08:38:09;2.33;;;1.70;;
23123;SDS011;11731;48.592;8.858;2024-03-29T08:40:38;2.47;;;1.97;;
23123;SDS011;11731;48.592;8.858;2024-03-29T08:43:07;3.03;;;1.87;;
23123;SDS011;11731;48.592;8.858;2024-03-29T08:45:34;3.40;;;1.73;;
23123;SDS011;11731;48.592;8.858;2024-03-29T08:48:05;3.17;;;1.97;;
23123;SDS011;11731;48.592;8.858;2024-03-29T08:50:33;4.37;;;2.63;;
23123;SDS011;11731;48.592;8.858;2024-03-29T08:52:59;2.27;;;1.97;;
23123;SDS011;11731;48.592;8.858;2024-03-29T08:55:28;3.13;;;1.83;;
23123;SDS011;11731;48.592;8.858;2024-03-29T08:57:55;2.40;;;1.63;;
23123;SDS011;11731;48.592;8.858;2024-03-29T09:00:23;2.00;;;1.50;;
23123;SDS011;11731;48.592;8.858;2024-03-29T09:02:50;1.93;;;1.40;;
23123;SDS011;11731;48.592;8.858;2024-03-29T09:05:17;2.93;;;1.40;;
23123;SDS011;11731;48.592;8.858;2024-03-29T09:07:44;2.67;;;1.27;;
23123;SDS011;11731;48.592;8.858;2024-03-29T09:10:11;2.10;;;1.50;;
23123;SDS011;11731;48.592;8.858;2024-03-29T09:12:41;1.80;;;1.50;;
23123;SDS011;11731;48.592;8.858;2024-03-29T09:15:09;1.97;;;1.70;;
23123;SDS011;11731;48.592;8.858;2024-03-29T09:17:38;1.60;;;1.40;;
23123;SDS011;11731;48.592;8.858;2024-03-29T09:20:06;1.90;;;1.60;;
23123;SDS011;11731;48.592;8.858;2024-03-29T09:22:33;2.97;;;2.10;;
23123;SDS011;11731;48.592;8.858;2024-03-29T09:25:00;3.03;;;1.90;;
23123;SDS011;11731;48.592;8.858;2024-03-29T09:27:28;2.17;;;1.90;;
23123;SDS011;11731;48.592;8.858;2024-03-29T09:29:57;3.37;;;2.40;;
23123;SDS011;11731;48.592;8.858;2024-03-29T09:32:24;4.77;;;2.70;;
23123;SDS011;11731;48.592;8.858;2024-03-29T09:34:51;4.90;;;3.47;;
23123;SDS011;11731;48.592;8.858;2024-03-29T09:37:18;4.40;;;3.60;;
23123;SDS011;11731;48.592;8.858;2024-03-29T09:39:45;4.37;;;3.10;;
23123;SDS011;11731;48.592;8.858;2024-03-29T09:42:13;5.80;;;2.63;;
23123;SDS011;11731;48.592;8.858;2024-03-29T09:44:43;5.13;;;3.03;;
23123;SDS011;11731;48.592;8.858;2024-03-29T09:47:13;7.10;;;3.50;;
23123;SDS011;11731;48.592;8.858;2024-03-29T09:49:43;4.07;;;3.50;;
23123;SDS011;11731;48.592;8.858;2024-03-29T09:52:12;4.87;;;3.17;;
23123;SDS011;11731;48.592;8.858;2024-03-29T09:54:40;4.20;;;3.57;;
23123;SDS011;11731;48.592;8.858;2024-03-29T09:57:07;4.37;;;3.30;;
23123;SDS011;11731;48.592;8.858;2024-03-29T09:59:34;3.10;;;2.80;;
23123;SDS011;11731;48.592;8.858;2024-03-29T10:02:03;3.83;;;3.20;;
23123;SDS011;11731;48.592;8.858;2024-03-29T10:04:38;3.77;;;2.57;;
23123;SDS011;11731;48.592;8.858;2024-03-29T10:07:06;3.90;;;2.77;;
23123;SDS011;11731;48.592;8.858;2024-03-29T10:09:35;3.30;;;2.47;;
23123;SDS011;11731;48.592;8.858;2024-03-29T10:12:02;3.73;;;2.60;;
23123;SDS011;11731;48.592;8.858;2024-03-29T10:14:30;7.47;;;4.50;;
23123;SDS011;11731;48.592;8.858;2024-03-29T10:16:57;5.00;;;3.77;;
23123;SDS011;11731;48.592;8.858;2024-03-29T10:19:24;4.50;;;2.57;;
23123;SDS011;11731;48.592;8.858;2024-03-29T10:22:04;2.40;;;2.20;;
23123;SDS011;11731;48.592;8.858;2024-03-29T10:24:33;2.73;;;1.70;;
23123;SDS011;11731;48.592;8.858;2024-03-29T10:27:00;1.67;;;1.57;;
23123;SDS011;11731;48.592;8.858;2024-03-29T10:29:27;2.53;;;1.80;;
23123;SDS011;11731;48.592;8.858;2024-03-29T10:31:54;1.87;;;1.63;;
23123;SDS011;11731;48.592;8.858;2024-03-29T10:34:22;2.13;;;1.60;;
23123;SDS011;11731;48.592;8.858;2024-03-29T10:36:50;2.77;;;1.70;;
23123;SDS011;11731;48.592;8.858;2024-03-29T10:39:19;2.40;;;2.20;;
23123;SDS011;11731;48.592;8.858;2024-03-29T10:41:47;3.10;;;2.60;;
23123;SDS011;11731;48.592;8.858;2024-03-29T10:44:15;3.50;;;2.70;;
23123;SDS011;11731;48.592;8.858;2024-03-29T10:46:42;3.30;;;2.50;;
23123;SDS011;11731;48.592;8.858;2024-03-29T10:49:12;2.70;;;2.20;;
23123;SDS011;11731;48.592;8.858;2024-03-29T10:51:42;3.80;;;1.97;;
23123;SDS011;11731;48.592;8.858;2024-03-29T10:54:11;3.87;;;2.67;;
23123;SDS011;11731;48.592;8.858;2024-03-29T10:56:51;4.63;;;2.63;;
23123;SDS011;11731;48.592;8.858;2024-03-29T10:59:30;3.27;;;2.27;;
23123;SDS011;11731;48.592;8.858;2024-03-29T11:02:11;3.20;;;2.00;;
23123;SDS011;11731;48.592;8.858;2024-03-29T11:04:44;4.13;;;2.37;;
23123;SDS011;11731;48.592;8.858;2024-03-29T11:07:13;2.30;;;1.70;;
23123;SDS011;11731;48.592;8.858;2024-03-29T11:09:47;3.00;;;1.90;;
23123;SDS011;11731;48.592;8.858;2024-03-29T11:12:22;1.83;;;1.60;;
23123;SDS011;11731;48.592;8.858;2024-03-29T11:14:52;1.87;;;1.70;;
23123;SDS011;11731;48.592;8.858;2024-03-29T11:17:26;3.27;;;1.70;;
23123;SDS011;11731;48.592;8.858;2024-03-29T11:19:55;2.20;;;1.80;;
23123;SDS011;11731;48.592;8.858;2024-03-29T11:22:23;2.00;;;1.70;;
23123;SDS011;11731;48.592;8.858;2024-03-29T11:24:50;1.50;;;1.30;;
23123;SDS011;11731;48.592;8.858;2024-03-29T11:27:17;1.57;;;1.47;;
23123;SDS011;11731;48.592;8.858;2024-03-29T11:29:51;1.93;;;1.70;;
23123;SDS011;11731;48.592;8.858;2024-03-29T11:32:33;1.93;;;1.30;;
23123;SDS011;11731;48.592;8.858;2024-03-29T11:35:00;2.27;;;1.30;;
23123;SDS011;11731;48.592;8.858;2024-03-29T11:37:29;2.17;;;1.67;;
23123;SDS011;11731;48.592;8.858;2024-03-29T11:39:58;4.27;;;1.53;;
23123;SDS011;11731;48.592;8.858;2024-03-29T11:42:43;2.23;;;1.40;;
23123;SDS011;11731;48.592;8.858;2024-03-29T11:45:11;2.33;;;1.47;;
23123;SDS011;11731;48.592;8.858;2024-03-29T11:47:39;1.57;;;1.43;;
23123;SDS011;11731;48.592;8.858;2024-03-29T11:50:07;2.93;;;1.73;;
23123;SDS011;11731;48.592;8.858;2024-03-29T11:52:34;3.13;;;2.00;;
23123;SDS011;11731;48.592;8.858;2024-03-29T11:55:03;1.93;;;1.63;;
23123;SDS011;11731;48.592;8.858;2024-03-29T11:57:32;1.73;;;1.63;;
23123;SDS011;11731;48.592;8.858;2024-03-29T12:00:01;1.80;;;1.70;;
23123;SDS011;11731;48.592;8.858;2024-03-29T12:02:29;2.13;;;1.53;;
23123;SDS011;11731;48.592;8.858;2024-03-29T12:04:56;2.90;;;1.97;;
23123;SDS011;11731;48.592;8.858;2024-03-29T12:07:23;3.43;;;1.63;;
23123;SDS011;11731;48.592;8.858;2024-03-29T12:09:50;2.80;;;1.27;;
23123;SDS011;11731;48.592;8.858;2024-03-29T12:12:18;2.00;;;1.27;;
23123;SDS011;11731;48.592;8.858;2024-03-29T12:14:45;2.30;;;1.43;;
23123;SDS011;11731;48.592;8.858;2024-03-29T12:17:14;1.60;;;1.40;;
23123;SDS011;11731;48.592;8.858;2024-03-29T12:19:41;2.80;;;1.30;;
23123;SDS011;11731;48.592;8.858;2024-03-29T12:22:10;1.77;;;1.60;;
23123;SDS011;11731;48.592;8.858;2024-03-29T12:24:37;1.73;;;1.40;;
23123;SDS011;11731;48.592;8.858;2024-03-29T12:27:04;1.97;;;1.40;;
23123;SDS011;11731;48.592;8.858;2024-03-29T12:29:31;2.47;;;1.10;;
23123;SDS011;11731;48.592;8.858;2024-03-29T12:32:00;1.40;;;1.10;;
23123;SDS011;11731;48.592;8.858;2024-03-29T12:34:31;2.77;;;1.50;;
23123;SDS011;11731;48.592;8.858;2024-03-29T12:36:58;2.97;;;1.83;;
23123;SDS011;11731;48.592;8.858;2024-03-29T12:39:25;2.77;;;1.40;;
23123;SDS011;11731;48.592;8.858;2024-03-29T12:41:52;1.90;;;1.70;;
23123;SDS011;11731;48.592;8.858;2024-03-29T12:44:24;6.03;;;2.20;;
23123;SDS011;11731;48.592;8.858;2024-03-29T12:46:51;2.33;;;1.80;;
23123;SDS011;11731;48.592;8.858;2024-03-29T12:49:18;1.67;;;1.33;;
23123;SDS011;11731;48.592;8.858;2024-03-29T12:51:46;3.40;;;1.50;;
23123;SDS011;11731;48.592;8.858;2024-03-29T12:54:14;2.00;;;1.20;;
23123;SDS011;11731;48.592;8.858;2024-03-29T12:56:40;0.80;;;0.80;;
23123;SDS011;11731;48.592;8.858;2024-03-29T12:59:08;2.33;;;1.00;;
23123;SDS011;11731;48.592;8.858;2024-03-29T13:01:35;2.70;;;1.63;;
23123;SDS011;11731;48.592;8.858;2024-03-29T13:04:03;1.03;;;1.00;;
23123;SDS011;11731;48.592;8.858;2024-03-29T13:06:30;1.40;;;1.00;;
23123;SDS011;11731;48.592;8.858;2024-03-29T13:08:59;1.43;;;1.17;;
23123;SDS011;11731;48.592;8.858;2024-03-29T13:11:27;1.77;;;1.13;;
23123;SDS011;11731;48.592;8.858;2024-03-29T13:13:54;2.83;;;0.90;;
23123;SDS011;11731;48.592;8.858;2024-03-29T13:19:24;1.37;;;0.93;;
23123;SDS011;11731;48.592;8.858;2024-03-29T13:21:51;2.30;;;0.97;;
23123;SDS011;11731;48.592;8.858;2024-03-29T13:24:20;1.40;;;0.90;;
23123;SDS011;11731;48.592;8.858;2024-03-29T13:26:46;1.33;;;1.03;;
23123;SDS011;11731;48.592;8.858;2024-03-29T13:29:14;1.13;;;0.63;;
23123;SDS011;11731;48.592;8.858;2024-03-29T13:31:41;0.97;;;0.77;;
23123;SDS011;11731;48.592;8.858;2024-03-29T13:34:08;1.10;;;0.90;;
23123;SDS011;11731;48.592;8.858;2024-03-29T13:36:38;1.80;;;1.10;;
23123;SDS011;11731;48.592;8.858;2024-03-29T13:39:05;1.50;;;1.00;;
23123;SDS011;11731;48.592;8.858;2024-03-29T13:41:34;1.47;;;1.00;;
23123;SDS011;11731;48.592;8.858;2024-03-29T13:44:01;0.80;;;0.80;;
23123;SDS011;11731;48.592;8.858;2024-03-29T13:46:30;1.40;;;0.70;;
23123;SDS011;11731;48.592;8.858;2024-03-29T13:48:58;1.00;;;0.90;;
23123;SDS011;11731;48.592;8.858;2024-03-29T13:51:25;0.80;;;0.80;;
23123;SDS011;11731;48.592;8.858;2024-03-29T13:53:52;1.33;;;0.80;;
23123;SDS011;11731;48.592;8.858;2024-03-29T13:56:23;1.23;;;0.90;;
23123;SDS011;11731;48.592;8.858;2024-03-29T13:58:52;0.80;;;0.80;;
23123;SDS011;11731;48.592;8.858;2024-03-29T14:01:19;1.53;;;0.90;;
23123;SDS011;11731;48.592;8.858;2024-03-29T14:03:46;1.80;;;0.80;;
23123;SDS011;11731;48.592;8.858;2024-03-29T14:06:13;0.90;;;0.70;;
23123;SDS011;11731;48.592;8.858;2024-03-29T14:08:40;1.93;;;0.80;;
23123;SDS011;11731;48.592;8.858;2024-03-29T14:11:07;1.10;;;0.73;;
23123;SDS011;11731;48.592;8.858;2024-03-29T14:13:36;1.43;;;0.80;;
23123;SDS011;11731;48.592;8.858;2024-03-29T14:16:04;0.97;;;0.80;;
23123;SDS011;11731;48.592;8.858;2024-03-29T14:18:31;0.70;;;0.70;;
23123;SDS011;11731;48.592;8.858;2024-03-29T14:21:02;1.07;;;0.70;;
23123;SDS011;11731;48.592;8.858;2024-03-29T14:23:29;1.10;;;0.70;;
23123;SDS011;11731;48.592;8.858;2024-03-29T14:25:56;0.77;;;0.70;;
23123;SDS011;11731;48.592;8.858;2024-03-29T14:28:23;1.30;;;0.80;;
23123;SDS011;11731;48.592;8.858;2024-03-29T14:30:50;0.80;;;0.67;;
23123;SDS011;11731;48.592;8.858;2024-03-29T14:33:18;2.03;;;0.90;;
23123;SDS011;11731;48.592;8.858;2024-03-29T14:35:45;1.97;;;1.03;;
23123;SDS011;11731;48.592;8.858;2024-03-29T14:38:13;0.73;;;0.70;;
23123;SDS011;11731;48.592;8.858;2024-03-29T14:40:40;0.83;;;0.83;;
23123;SDS011;11731;48.592;8.858;2024-03-29T14:43:07;1.10;;;0.87;;
23123;SDS011;11731;48.592;8.858;2024-03-29T14:45:34;2.40;;;0.90;;
23123;SDS011;11731;48.592;8.858;2024-03-29T14:48:01;1.17;;;0.87;;
23123;SDS011;11731;48.592;8.858;2024-03-29T14:50:29;2.93;;;0.87;;
23123;SDS011;11731;48.592;8.858;2024-03-29T14:52:56;2.83;;;0.87;;
23123;SDS011;11731;48.592;8.858;2024-03-29T14:55:23;1.70;;;0.90;;